Time;durP1;ratioP1;P1;durP2;ratioP2;P2;SDS_P1;SDS_P2;PMS_P1;PMS_P2;Temp;Humidity;BMP_temperature;BMP_pressure;BME280_temperature;BME280_humidity;BME280_pressure;Samples;Min_cycle;Max_cycle;Signal;HPM_P1;HPM_P2
2022/09/27 00:00:10;;;;;;;906.50;844.53;;;;;;;-146.32;100.00;63746.28;695666;28;22395;-64
2022/09/27 00:00:35;;;;;;;901.08;839.08;;;;;;;-146.32;100.00;63746.28;691726;28;138191;-64
2022/09/27 00:00:57;;;;;;;902.45;840.50;;;;;;;-146.32;100.00;63746.28;694986;28;46434;-64
2022/09/27 00:01:20;;;;;;;902.58;840.67;;;;;;;-146.32;100.00;63746.28;694057;28;69446;-64
2022/09/27 00:01:42;;;;;;;907.30;845.20;;;;;;;-146.32;100.00;63746.28;694952;28;46312;-65
2022/09/27 00:02:04;;;;;;;912.85;850.65;;;;;;;-146.32;100.00;63746.28;693467;28;69452;-64
2022/09/27 00:02:29;;;;;;;900.65;838.80;;;;;;;-146.32;100.00;63746.28;694920;28;38073;-64
2022/09/27 00:02:50;;;;;;;908.30;846.15;;;;;;;-146.32;100.00;63746.28;696329;28;22976;-64
2022/09/27 00:03:13;;;;;;;909.72;847.65;;;;;;;-146.32;100.00;63746.28;695895;28;20624;-65
2022/09/27 00:03:34;;;;;;;885.33;823.80;;;;;;;-146.32;100.00;63746.28;693959;28;68863;-62
2022/09/27 00:03:55;;;;;;;901.53;839.65;;;;;;;-146.32;100.00;63746.28;695841;28;22382;-64
2022/09/27 00:04:16;;;;;;;905.72;843.67;;;;;;;-146.32;100.00;63746.28;695587;28;23453;-64
2022/09/27 00:04:37;;;;;;;883.25;821.90;;;;;;;-146.32;100.00;63746.28;695024;28;45233;-64
2022/09/27 00:05:00;;;;;;;897.95;836.13;;;;;;;-146.32;100.00;63746.28;695690;28;22388;-65
2022/09/27 00:05:21;;;;;;;898.45;836.63;;;;;;;-146.32;100.00;63746.28;695907;28;18103;-64
2022/09/27 00:05:42;;;;;;;890.63;828.95;;;;;;;-146.32;100.00;63746.28;695859;28;21425;-64
2022/09/27 00:06:06;;;;;;;907.13;845.00;;;;;;;-146.32;100.00;63746.28;695075;28;45263;-64
2022/09/27 00:06:30;;;;;;;894.78;833.08;;;;;;;-146.32;100.00;63746.28;693049;28;91958;-64
2022/09/27 00:06:51;;;;;;;902.00;840.03;;;;;;;-146.32;100.00;63746.28;692661;28;92508;-64
2022/09/27 00:07:12;;;;;;;895.80;834.15;;;;;;;-146.32;100.00;63746.28;694687;28;46445;-64
2022/09/27 00:07:33;;;;;;;901.53;839.78;;;;;;;-146.32;100.00;63746.28;695839;28;22374;-64
2022/09/27 00:07:55;;;;;;;903.63;841.80;;;;;;;-146.32;100.00;63746.28;695793;28;22479;-64
2022/09/27 00:08:18;;;;;;;921.15;858.70;;;;;;;-146.32;100.00;63746.28;694903;28;44430;-64
2022/09/27 00:08:41;;;;;;;905.22;843.28;;;;;;;-146.32;100.00;63746.28;694731;28;69420;-64
2022/09/27 00:09:03;;;;;;;905.00;842.85;;;;;;;-146.32;100.00;63746.28;694296;28;69398;-64
2022/09/27 00:09:24;;;;;;;901.90;839.83;;;;;;;-146.32;100.00;63746.28;694884;28;46206;-64
2022/09/27 00:09:45;;;;;;;895.95;834.25;;;;;;;-146.32;100.00;63746.28;695992;28;21468;-64
2022/09/27 00:10:07;;;;;;;909.92;847.80;;;;;;;-146.32;100.00;63746.28;695778;28;23516;-64
2022/09/27 00:10:29;;;;;;;910.58;848.28;;;;;;;-146.32;100.00;63746.28;694780;28;46613;-64
2022/09/27 00:10:57;;;;;;;908.15;846.03;;;;;;;-146.32;100.00;63746.28;697243;28;46334;-64
2022/09/27 00:11:26;;;;;;;898.47;836.65;;;;;;;-146.32;100.00;63746.28;695320;28;104068;-64
2022/09/27 00:11:47;;;;;;;889.20;827.65;;;;;;;-146.32;100.00;63746.28;694382;28;137836;-64
2022/09/27 00:12:09;;;;;;;908.65;846.53;;;;;;;-146.32;100.00;63746.28;697574;28;21544;-64
2022/09/27 00:12:30;;;;;;;911.80;849.55;;;;;;;-146.32;100.00;63746.28;697426;28;46407;-64
2022/09/27 00:12:52;;;;;;;900.88;839.00;;;;;;;-146.32;100.00;63746.28;696086;28;22362;-65
2022/09/27 00:13:13;;;;;;;899.28;837.45;;;;;;;-146.32;100.00;63746.28;695001;28;46323;-64
2022/09/27 00:13:34;;;;;;;901.97;839.97;;;;;;;-146.32;100.00;63746.28;695850;28;22363;-64
2022/09/27 00:13:57;;;;;;;910.13;847.97;;;;;;;-146.32;100.00;63746.28;695876;28;22537;-64
2022/09/27 00:14:18;;;;;;;907.00;844.92;;;;;;;-146.32;100.00;63746.28;694086;28;69424;-64
2022/09/27 00:14:40;;;;;;;910.38;848.17;;;;;;;-146.32;100.00;63746.28;694960;28;46352;-64
2022/09/27 00:15:02;;;;;;;907.00;844.95;;;;;;;-146.32;100.00;63746.28;695764;28;23428;-64
2022/09/27 00:15:23;;;;;;;913.30;851.05;;;;;;;-146.32;100.00;63746.28;694844;28;45228;-64
2022/09/27 00:15:45;;;;;;;904.60;842.53;;;;;;;-146.32;100.00;63746.28;695797;28;22408;-64
2022/09/27 00:16:07;;;;;;;897.20;835.50;;;;;;;-146.32;100.00;63746.28;695077;28;46287;-64
2022/09/27 00:16:30;;;;;;;901.88;839.97;;;;;;;-146.32;100.00;63746.28;694703;28;44370;-64
2022/09/27 00:16:51;;;;;;;913.05;850.92;;;;;;;-146.32;100.00;63746.28;693853;28;67372;-64
2022/09/27 00:17:12;;;;;;;914.03;851.75;;;;;;;-146.32;100.00;63746.28;698321;28;21509;-65
2022/09/27 00:17:35;;;;;;;913.58;851.38;;;;;;;-146.32;100.00;63746.28;697425;28;46378;-64
2022/09/27 00:17:56;;;;;;;925.80;863.40;;;;;;;-146.32;100.00;63746.28;697755;28;45214;-64
2022/09/27 00:18:17;;;;;;;915.05;852.85;;;;;;;-146.32;100.00;63746.28;698492;28;22411;-64
2022/09/27 00:18:38;;;;;;;900.95;839.08;;;;;;;-146.32;100.00;63746.28;698423;28;22272;-64
2022/09/27 00:19:01;;;;;;;896.85;835.13;;;;;;;-146.32;100.00;63746.28;697729;28;46261;-64
2022/09/27 00:19:24;;;;;;;907.90;845.75;;;;;;;-146.32;100.00;63746.28;696839;28;68288;-64
2022/09/27 00:19:45;;;;;;;913.55;851.13;;;;;;;-146.32;100.00;63746.28;695029;28;46425;-64
2022/09/27 00:20:07;;;;;;;903.90;842.00;;;;;;;-146.32;100.00;63746.28;695059;28;45368;-64
2022/09/27 00:20:29;;;;;;;905.15;843.22;;;;;;;-146.32;100.00;63746.28;694884;28;44349;-64
2022/09/27 00:20:50;;;;;;;905.05;843.05;;;;;;;-146.32;100.00;63746.28;694964;28;45276;-64
2022/09/27 00:21:12;;;;;;;916.85;854.45;;;;;;;-146.32;100.00;63746.28;697134;28;22421;-65
2022/09/27 00:21:34;;;;;;;899.67;837.72;;;;;;;-146.32;100.00;63746.28;697427;28;46311;-64
2022/09/27 00:21:55;;;;;;;895.53;833.75;;;;;;;-146.32;100.00;63746.28;697098;28;44376;-64
2022/09/27 00:22:18;;;;;;;895.60;833.95;;;;;;;-146.32;100.00;63746.28;698502;28;21490;-64
2022/09/27 00:22:39;;;;;;;918.03;855.42;;;;;;;-146.32;100.00;63746.28;697683;28;45240;-64
2022/09/27 00:23:00;;;;;;;899.78;837.88;;;;;;;-146.32;100.00;63746.28;697613;28;45211;-64
2022/09/27 00:23:21;;;;;;;903.70;841.60;;;;;;;-146.32;100.00;63746.28;698357;28;22342;-64
2022/09/27 00:23:42;;;;;;;902.33;840.35;;;;;;;-146.32;100.00;63746.28;698560;28;22352;-64
2022/09/27 00:24:05;;;;;;;905.65;843.58;;;;;;;-146.32;100.00;63746.28;698436;28;22358;-64
2022/09/27 00:24:26;;;;;;;904.95;842.90;;;;;;;-146.32;100.00;63746.28;696644;28;69413;-64
2022/09/27 00:24:48;;;;;;;898.70;836.92;;;;;;;-146.32;100.00;63746.28;698667;28;22466;-64
2022/09/27 00:25:09;;;;;;;899.35;837.50;;;;;;;-146.32;100.00;63746.28;697632;28;45246;-64
2022/09/27 00:25:30;;;;;;;904.65;842.60;;;;;;;-146.32;100.00;63746.28;698284;28;22404;-65
2022/09/27 00:25:56;;;;;;;895.40;833.75;;;;;;;-146.32;100.00;63746.28;698616;28;22364;-64
2022/09/27 00:26:17;;;;;;;899.95;838.17;;;;;;;-146.32;100.00;63746.28;694412;28;136366;-64
2022/09/27 00:26:45;;;;;;;903.78;841.92;;;;;;;-146.32;100.00;63746.28;697845;28;37803;-64
2022/09/27 00:27:07;;;;;;;918.33;855.50;;;;;;;-146.32;100.00;63746.28;692227;28;92272;-64
2022/09/27 00:27:29;;;;;;;919.53;856.83;;;;;;;-146.32;100.00;63746.28;690889;28;69322;-64
2022/09/27 00:27:50;;;;;;;895.72;833.95;;;;;;;-146.32;100.00;63746.28;692848;28;23529;-64
2022/09/27 00:28:12;;;;;;;919.22;856.70;;;;;;;-146.32;100.00;63746.28;691979;28;46684;-64
2022/09/27 00:28:34;;;;;;;925.30;862.65;;;;;;;-146.32;100.00;63746.28;693402;28;46284;-64
2022/09/27 00:28:56;;;;;;;909.45;847.30;;;;;;;-146.32;100.00;63746.28;695861;28;22434;-64
2022/09/27 00:29:18;;;;;;;899.10;837.20;;;;;;;-146.32;100.00;63746.28;694227;28;45387;-64
2022/09/27 00:29:39;;;;;;;912.35;850.05;;;;;;;-146.32;100.00;63746.28;695242;28;44352;-64
2022/09/27 00:30:01;;;;;;;911.28;849.13;;;;;;;-146.32;100.00;63746.28;695047;28;44357;-64
2022/09/27 00:30:22;;;;;;;909.13;847.03;;;;;;;-146.32;100.00;63746.28;697942;28;22409;-64
2022/09/27 00:30:43;;;;;;;907.00;844.92;;;;;;;-146.32;100.00;63746.28;695764;28;22501;-64
2022/09/27 00:31:14;;;;;;;912.00;849.88;;;;;;;-146.32;100.00;63746.28;695557;28;22377;-64
2022/09/27 00:31:36;;;;;;;921.58;859.03;;;;;;;-146.32;100.00;63746.28;691595;28;137314;-64
2022/09/27 00:31:57;;;;;;;928.10;865.27;;;;;;;-146.32;100.00;63746.28;692642;28;44422;-64
2022/09/27 00:32:19;;;;;;;920.13;857.50;;;;;;;-146.32;100.00;63746.28;691769;28;46350;-64
2022/09/27 00:32:41;;;;;;;923.92;861.22;;;;;;;-146.32;100.00;63746.28;693636;28;46379;-64
2022/09/27 00:33:03;;;;;;;923.63;860.88;;;;;;;-146.32;100.00;63746.28;694770;28;45123;-64
2022/09/27 00:33:24;;;;;;;914.92;852.45;;;;;;;-146.32;100.00;63746.28;695148;28;22392;-64
2022/09/27 00:33:46;;;;;;;904.67;842.50;;;;;;;-146.32;100.00;63746.28;694868;28;44120;-64
2022/09/27 00:34:11;;;;;;;913.72;851.33;;;;;;;-146.32;100.00;63746.28;697088;28;46368;-62
2022/09/27 00:34:32;;;;;;;915.25;852.78;;;;;;;-146.32;100.00;63746.28;694897;28;114968;-62
2022/09/27 00:34:54;;;;;;;907.90;845.80;;;;;;;-146.32;100.00;63746.28;698430;28;21525;-62
2022/09/27 00:35:15;;;;;;;910.85;848.75;;;;;;;-146.32;100.00;63746.28;697392;28;46277;-62
2022/09/27 00:35:38;;;;;;;917.47;855.03;;;;;;;-146.32;100.00;63746.28;698348;28;22388;-62
2022/09/27 00:36:03;;;;;;;913.47;851.08;;;;;;;-146.32;100.00;63746.28;696602;28;45221;-64
2022/09/27 00:36:26;;;;;;;915.47;853.10;;;;;;;-146.32;100.00;63746.28;694313;28;137995;-65
2022/09/27 00:36:48;;;;;;;934.65;871.50;;;;;;;-146.32;100.00;63746.28;696446;28;69405;-64
2022/09/27 00:37:11;;;;;;;920.17;857.35;;;;;;;-146.32;100.00;63746.28;692715;28;66606;-64
2022/09/27 00:37:32;;;;;;;919.63;856.97;;;;;;;-146.32;100.00;63746.28;691803;28;46291;-64
2022/09/27 00:37:53;;;;;;;879.28;817.88;;;;;;;-146.32;100.00;63746.28;689061;28;46325;-65
2022/09/27 00:38:14;;;;;;;891.03;829.40;;;;;;;-146.32;100.00;63746.28;691099;28;13344;-65
2022/09/27 00:38:35;;;;;;;905.03;842.83;;;;;;;-146.32;100.00;63746.28;692327;28;23411;-65
2022/09/27 00:38:58;;;;;;;904.72;842.65;;;;;;;-146.32;100.00;63746.28;692679;28;22391;-64
2022/09/27 00:39:20;;;;;;;897.00;835.13;;;;;;;-146.32;100.00;63746.28;691702;28;67231;-65
2022/09/27 00:39:41;;;;;;;924.45;861.75;;;;;;;-146.32;100.00;63746.28;694829;28;45267;-65
2022/09/27 00:40:03;;;;;;;906.95;844.88;;;;;;;-146.32;100.00;63746.28;695535;28;23504;-65
2022/09/27 00:40:25;;;;;;;887.08;825.53;;;;;;;-146.32;100.00;63746.28;692331;28;44881;-65
2022/09/27 00:40:47;;;;;;;911.90;849.35;;;;;;;-146.32;100.00;63746.28;694725;28;46265;-65
2022/09/27 00:41:08;;;;;;;913.72;851.20;;;;;;;-146.32;100.00;63746.28;691865;28;46382;-64
2022/09/27 00:41:32;;;;;;;917.90;855.40;;;;;;;-146.32;100.00;63746.28;691921;28;44361;-65
2022/09/27 00:41:56;;;;;;;917.33;854.75;;;;;;;-146.32;100.00;63746.28;690998;28;69119;-64
2022/09/27 00:42:17;;;;;;;918.03;855.47;;;;;;;-146.32;100.00;63746.28;694349;28;90325;-64
2022/09/27 00:42:38;;;;;;;922.97;860.30;;;;;;;-146.32;100.00;63746.28;698304;28;23633;-65
2022/09/27 00:42:59;;;;;;;921.35;858.78;;;;;;;-146.32;100.00;63746.28;695489;28;21507;-65
2022/09/27 00:43:22;;;;;;;917.40;855.05;;;;;;;-146.32;100.00;63746.28;694114;28;46242;-64
2022/09/27 00:43:47;;;;;;;920.03;857.63;;;;;;;-146.32;100.00;63746.28;691957;28;46227;-65
2022/09/27 00:44:56;;;;;;;924.50;861.95;;;;;;;-146.32;100.00;63746.28;689544;28;116720;-65
2022/09/27 00:45:18;;;;;;;932.72;869.80;;;;;;;-146.32;100.00;63746.28;682957;28;137390;-65
2022/09/27 00:45:40;;;;;;;933.00;870.17;;;;;;;-146.32;100.00;63746.28;688194;28;46440;-65
2022/09/27 00:46:02;;;;;;;928.15;865.45;;;;;;;-146.32;100.00;63746.28;689774;28;21545;-64
2022/09/27 00:46:27;;;;;;;935.20;872.17;;;;;;;-146.32;100.00;63746.28;688928;28;46285;-64
2022/09/27 00:47:00;;;;;;;929.63;866.72;;;;;;;-146.32;100.00;63746.28;685355;28;138675;-65
2022/09/27 00:47:25;;;;;;;912.72;850.10;;;;;;;-146.32;100.00;63746.28;684755;28;160589;-65
2022/09/27 00:47:50;;;;;;;902.83;840.83;;;;;;;-146.32;100.00;63746.28;685904;28;137745;-65
2022/09/27 00:48:15;;;;;;;934.57;871.60;;;;;;;-146.32;100.00;63746.28;685821;28;138313;-65
2022/09/27 00:48:36;;;;;;;923.95;861.20;;;;;;;-146.32;100.00;63746.28;685832;28;136476;-65
2022/09/27 00:49:03;;;;;;;928.10;865.42;;;;;;;-146.32;100.00;63746.28;687470;28;22395;-64
2022/09/27 00:49:28;;;;;;;927.38;864.63;;;;;;;-146.32;100.00;63746.28;684765;28;88678;-64
2022/09/27 00:49:52;;;;;;;927.78;865.00;;;;;;;-146.32;100.00;63746.28;684823;28;90712;-64
2022/09/27 00:50:23;;;;;;;927.15;864.42;;;;;;;-146.32;100.00;63746.28;682983;28;136501;-65
2022/09/27 00:50:46;;;;;;;910.25;848.05;;;;;;;-146.32;100.00;63746.28;682803;28;160173;-64
2022/09/27 00:51:08;;;;;;;917.47;855.03;;;;;;;-146.32;100.00;63746.28;687612;28;90713;-65
2022/09/27 00:51:31;;;;;;;913.60;851.25;;;;;;;-146.32;100.00;63746.28;690103;28;45010;-64
2022/09/27 00:51:55;;;;;;;914.78;852.30;;;;;;;-146.32;100.00;63746.28;692797;28;69399;-64
2022/09/27 00:52:20;;;;;;;904.08;842.05;;;;;;;-146.32;100.00;63746.28;689494;28;115170;-65
2022/09/27 00:52:46;;;;;;;912.15;849.95;;;;;;;-146.32;100.00;63746.28;687048;28;115174;-64
2022/09/27 00:53:12;;;;;;;898.53;836.78;;;;;;;-146.32;100.00;63746.28;686028;28;136426;-65
2022/09/27 00:53:36;;;;;;;886.45;825.05;;;;;;;-146.32;100.00;63746.28;685091;28;161091;-65
2022/09/27 00:53:58;;;;;;;898.83;837.10;;;;;;;-146.32;100.00;63746.28;687666;28;90726;-65
2022/09/27 00:54:20;;;;;;;899.85;837.97;;;;;;;-146.32;100.00;63746.28;691624;28;44386;-65
2022/09/27 00:54:43;;;;;;;890.72;829.13;;;;;;;-146.32;100.00;63746.28;694332;28;45206;-64
2022/09/27 00:55:11;;;;;;;910.17;848.05;;;;;;;-146.32;100.00;63746.28;690697;28;93189;-65
2022/09/27 00:55:36;;;;;;;881.58;820.30;;;;;;;-146.32;100.00;63746.28;691284;28;136337;-64
2022/09/27 00:56:00;;;;;;;877.78;816.47;;;;;;;-146.32;100.00;63746.28;689655;28;115116;-65
2022/09/27 00:56:26;;;;;;;903.08;841.10;;;;;;;-146.32;100.00;63746.28;690267;28;92075;-65
2022/09/27 00:56:48;;;;;;;905.13;843.03;;;;;;;-146.32;100.00;63746.28;687899;28;159304;-65
2022/09/27 00:57:10;;;;;;;922.40;859.40;;;;;;;-146.32;100.00;63746.28;692451;28;66491;-64
2022/09/27 00:57:32;;;;;;;908.55;846.42;;;;;;;-146.32;100.00;63746.28;693651;28;69441;-65
2022/09/27 00:57:54;;;;;;;902.13;840.15;;;;;;;-146.32;100.00;63746.28;692858;28;22381;-65
2022/09/27 00:58:18;;;;;;;908.50;846.50;;;;;;;-146.32;100.00;63746.28;692502;28;67485;-65
2022/09/27 00:58:48;;;;;;;899.65;837.78;;;;;;;-146.32;100.00;63746.28;694031;28;61357;-65
2022/09/27 00:59:15;;;;;;;913.70;851.25;;;;;;;-146.32;100.00;63746.28;691285;28;138216;-65
2022/09/27 00:59:39;;;;;;;915.30;852.97;;;;;;;-146.32;100.00;63746.28;691308;28;136525;-65
2022/09/27 01:00:03;;;;;;;916.67;854.33;;;;;;;-146.32;100.00;63746.28;692958;28;69455;-63
2022/09/27 01:00:25;;;;;;;919.30;856.80;;;;;;;-146.32;100.00;63746.28;689319;28;115108;-62
2022/09/27 01:00:51;;;;;;;918.63;856.15;;;;;;;-146.32;100.00;63746.28;692580;28;21518;-65
2022/09/27 01:01:13;;;;;;;906.80;844.72;;;;;;;-146.32;100.00;63746.28;688767;28;136370;-65
2022/09/27 01:01:34;;;;;;;925.22;862.35;;;;;;;-146.32;100.00;63746.28;693363;28;21328;-65
2022/09/27 01:01:56;;;;;;;925.17;862.47;;;;;;;-146.32;100.00;63746.28;691342;28;46218;-65
2022/09/27 01:02:18;;;;;;;924.92;862.20;;;;;;;-146.32;100.00;63746.28;692428;28;46369;-64
2022/09/27 01:02:42;;;;;;;915.92;853.70;;;;;;;-146.32;100.00;63746.28;694430;28;46373;-65
2022/09/27 01:03:06;;;;;;;920.53;858.25;;;;;;;-146.32;100.00;63746.28;692998;28;92288;-65
2022/09/27 01:03:32;;;;;;;918.95;856.50;;;;;;;-146.32;100.00;63746.28;686881;28;115258;-65
2022/09/27 01:03:58;;;;;;;925.22;862.58;;;;;;;-146.32;100.00;63746.28;688630;28;115154;-65
2022/09/27 01:04:22;;;;;;;927.58;864.85;;;;;;;-146.32;100.00;63746.28;688638;28;138048;-65
2022/09/27 01:04:44;;;;;;;912.88;850.53;;;;;;;-146.32;100.00;63746.28;686175;28;115133;-65
2022/09/27 01:05:08;;;;;;;912.80;850.40;;;;;;;-146.32;100.00;63746.28;689233;28;46406;-64
2022/09/27 01:05:30;;;;;;;907.28;845.08;;;;;;;-146.32;100.00;63746.28;689933;28;90079;-65
2022/09/27 01:05:52;;;;;;;904.58;842.58;;;;;;;-146.32;100.00;63746.28;692002;28;44369;-64
2022/09/27 01:06:13;;;;;;;912.80;850.60;;;;;;;-146.32;100.00;63746.28;691831;28;46291;-65
2022/09/27 01:06:35;;;;;;;917.22;854.83;;;;;;;-146.32;100.00;63746.28;695320;28;23326;-65
2022/09/27 01:06:59;;;;;;;932.33;869.00;;;;;;;-146.32;100.00;63746.28;693961;28;69382;-64
2022/09/27 01:07:21;;;;;;;926.03;862.90;;;;;;;-146.32;100.00;63746.28;696288;28;67275;-65
2022/09/27 01:07:42;;;;;;;917.95;855.45;;;;;;;-146.32;100.00;63746.28;694747;28;44368;-65
2022/09/27 01:08:04;;;;;;;918.13;855.63;;;;;;;-146.32;100.00;63746.28;689403;28;24185;-65
2022/09/27 01:08:26;;;;;;;923.03;860.33;;;;;;;-146.32;100.00;63746.28;689265;28;21437;-65
2022/09/27 01:08:47;;;;;;;920.50;858.00;;;;;;;-146.32;100.00;63746.28;689162;28;46347;-64
2022/09/27 01:09:10;;;;;;;895.78;834.10;;;;;;;-146.32;100.00;63746.28;689196;28;46822;-65
2022/09/27 01:09:31;;;;;;;919.88;857.33;;;;;;;-146.32;100.00;63746.28;689519;28;44367;-65
2022/09/27 01:09:53;;;;;;;930.45;867.60;;;;;;;-146.32;100.00;63746.28;693395;28;46214;-65
2022/09/27 01:10:15;;;;;;;920.47;857.97;;;;;;;-146.32;100.00;63746.28;697418;28;22342;-64
2022/09/27 01:10:43;;;;;;;920.30;857.65;;;;;;;-146.32;100.00;63746.28;693611;28;69203;-64
2022/09/27 01:11:13;;;;;;;905.10;843.10;;;;;;;-146.32;100.00;63746.28;691338;28;136317;-64
2022/09/27 01:11:40;;;;;;;912.30;850.08;;;;;;;-146.32;100.00;63746.28;688218;28;137602;-64
2022/09/27 01:12:08;;;;;;;893.40;831.80;;;;;;;-146.32;100.00;63746.28;689290;28;137968;-64
2022/09/27 01:12:38;;;;;;;913.22;851.03;;;;;;;-146.32;100.00;63746.28;691420;28;136417;-64
2022/09/27 01:13:07;;;;;;;901.70;839.70;;;;;;;-146.32;100.00;63746.28;691267;28;137512;-64
2022/09/27 01:13:34;;;;;;;920.33;857.75;;;;;;;-146.32;100.00;63746.28;694040;28;98609;-64
2022/09/27 01:14:07;;;;;;;917.35;854.83;;;;;;;-146.32;100.00;63746.28;694177;28;138030;-64
2022/09/27 01:14:39;;;;;;;913.47;851.17;;;;;;;-146.32;100.00;63746.28;690771;28;160786;-64
2022/09/27 01:15:08;;;;;;;878.50;817.22;;;;;;;-146.32;100.00;63746.28;691637;28;136080;-64
2022/09/27 01:15:34;;;;;;;916.67;854.15;;;;;;;-146.32;100.00;63746.28;688466;28;135938;-64
2022/09/27 01:16:00;;;;;;;901.08;839.20;;;;;;;-146.32;100.00;63746.28;688996;28;136322;-64
2022/09/27 01:16:28;;;;;;;902.50;840.35;;;;;;;-146.32;100.00;63746.28;691025;28;138224;-65
2022/09/27 01:16:57;;;;;;;920.17;857.50;;;;;;;-146.32;100.00;63746.28;691542;28;113018;-64
2022/09/27 01:17:29;;;;;;;920.28;857.13;;;;;;;-146.32;100.00;63746.28;690214;28;160928;-65
2022/09/27 01:18:00;;;;;;;929.83;866.97;;;;;;;-146.32;100.00;63746.28;691378;28;137512;-64
2022/09/27 01:18:31;;;;;;;921.55;858.88;;;;;;;-146.32;100.00;63746.28;690843;28;135791;-64
2022/09/27 01:19:03;;;;;;;896.65;834.72;;;;;;;-146.32;100.00;63746.28;691603;28;137767;-64
2022/09/27 01:19:46;;;;;;;925.08;862.30;;;;;;;-146.32;100.00;63746.28;691001;28;137529;-64
2022/09/27 01:20:45;;;;;;;907.55;845.55;;;;;;;-146.32;100.00;63746.28;689114;28;138224;-64
2022/09/27 01:21:36;;;;;;;907.92;845.75;;;;;;;-146.32;100.00;63746.28;691032;28;135980;-64
2022/09/27 01:21:59;;;;;;;900.38;838.35;;;;;;;-146.32;100.00;63746.28;687910;28;137525;-64
2022/09/27 01:22:25;;;;;;;904.72;842.58;;;;;;;-146.32;100.00;63746.28;690995;28;67373;-64
2022/09/27 01:22:54;;;;;;;915.35;852.70;;;;;;;-146.32;100.00;63746.28;686594;28;117122;-64
2022/09/27 01:23:32;;;;;;;911.80;849.50;;;;;;;-146.32;100.00;63746.28;685854;28;137883;-64
2022/09/27 01:24:09;;;;;;;897.38;835.55;;;;;;;-146.32;100.00;63746.28;688037;28;137683;-64
2022/09/27 01:25:03;;;;;;;911.25;848.97;;;;;;;-146.32;100.00;63746.28;686401;28;137507;-64
2022/09/27 01:25:45;;;;;;;906.25;844.10;;;;;;;-146.32;100.00;63746.28;679450;29;84641;-64
2022/09/27 01:26:13;;;;;;;913.90;851.58;;;;;;;-146.32;100.00;63746.28;677944;28;137636;-64
2022/09/27 01:27:01;;;;;;;906.38;844.33;;;;;;;-146.32;100.00;63746.28;679245;28;161111;-65
2022/09/27 01:27:55;;;;;;;923.92;861.08;;;;;;;-146.32;100.00;63746.28;674826;29;180332;-65
2022/09/27 01:28:21;;;;;;;901.33;839.50;;;;;;;-146.32;100.00;63746.28;667007;29;160633;-64
2022/09/27 01:28:55;;;;;;;887.78;826.38;;;;;;;-146.32;100.00;63746.28;686073;28;137655;-64
2022/09/27 01:29:23;;;;;;;916.28;854.03;;;;;;;-146.32;100.00;63746.28;683988;28;160750;-64
2022/09/27 01:29:56;;;;;;;899.13;837.30;;;;;;;-146.32;100.00;63746.28;685772;28;136219;-64
2022/09/27 01:30:23;;;;;;;912.72;850.38;;;;;;;-146.32;100.00;63746.28;685709;28;137711;-64
2022/09/27 01:30:50;;;;;;;915.72;853.42;;;;;;;-146.32;100.00;63746.28;683072;28;137541;-64
2022/09/27 01:31:18;;;;;;;908.85;846.60;;;;;;;-146.32;100.00;63746.28;686501;28;90677;-64
2022/09/27 01:31:45;;;;;;;914.00;851.67;;;;;;;-146.32;100.00;63746.28;682860;28;137987;-65
2022/09/27 01:32:09;;;;;;;903.63;841.60;;;;;;;-146.32;100.00;63746.28;684158;28;138919;-64
2022/09/27 01:32:34;;;;;;;911.90;849.58;;;;;;;-146.32;100.00;63746.28;690105;28;92054;-65
2022/09/27 01:33:07;;;;;;;912.53;850.20;;;;;;;-146.32;100.00;63746.28;688522;28;136495;-64
2022/09/27 01:33:39;;;;;;;912.47;850.22;;;;;;;-146.32;100.00;63746.28;686659;28;137687;-65
2022/09/27 01:34:03;;;;;;;922.05;859.55;;;;;;;-146.32;100.00;63746.28;688744;28;136383;-64
2022/09/27 01:34:29;;;;;;;910.35;848.15;;;;;;;-146.32;100.00;63746.28;689316;28;114992;-64
2022/09/27 01:34:58;;;;;;;880.50;819.20;;;;;;;-146.32;100.00;63746.28;689371;28;113461;-64
2022/09/27 01:35:26;;;;;;;913.20;850.95;;;;;;;-146.32;100.00;63746.28;689035;28;159113;-65
2022/09/27 01:35:57;;;;;;;918.85;856.40;;;;;;;-146.32;100.00;63746.28;687724;28;161244;-64
2022/09/27 01:36:24;;;;;;;903.88;841.92;;;;;;;-146.32;100.00;63746.28;687287;28;137468;-64
2022/09/27 01:36:53;;;;;;;912.72;850.42;;;;;;;-146.32;100.00;63746.28;688728;28;137800;-65
2022/09/27 01:37:18;;;;;;;912.83;850.17;;;;;;;-146.32;100.00;63746.28;688567;28;156698;-65
2022/09/27 01:37:44;;;;;;;912.80;850.72;;;;;;;-146.32;100.00;63746.28;694040;28;92370;-64
2022/09/27 01:38:12;;;;;;;909.08;847.03;;;;;;;-146.32;100.00;63746.28;691129;28;136315;-64
2022/09/27 01:38:40;;;;;;;915.90;853.45;;;;;;;-146.32;100.00;63746.28;690602;28;136309;-64
2022/09/27 01:39:14;;;;;;;914.28;851.97;;;;;;;-146.32;100.00;63746.28;688812;28;137993;-64
2022/09/27 01:40:00;;;;;;;925.03;862.42;;;;;;;-146.32;100.00;63746.28;691181;28;160594;-64
2022/09/27 01:40:31;;;;;;;905.28;843.20;;;;;;;-146.32;100.00;63746.28;696458;28;60891;-64
2022/09/27 01:41:35;;;;;;;910.80;848.60;;;;;;;-146.32;100.00;63746.28;687845;28;160602;-64
2022/09/27 01:42:14;;;;;;;900.67;838.92;;;;;;;-146.32;100.00;63746.28;690050;28;156513;-64
2022/09/27 01:42:45;;;;;;;910.83;848.60;;;;;;;-146.32;100.00;63746.28;691323;28;135834;-64
2022/09/27 01:43:12;;;;;;;920.22;857.67;;;;;;;-146.32;100.00;63746.28;688539;28;137789;-64
2022/09/27 01:43:41;;;;;;;914.45;852.17;;;;;;;-146.32;100.00;63746.28;690875;28;62762;-64
2022/09/27 01:44:07;;;;;;;912.63;850.33;;;;;;;-146.32;100.00;63746.28;687254;28;138257;-64
2022/09/27 01:44:38;;;;;;;917.03;854.65;;;;;;;-146.32;100.00;63746.28;690879;28;135976;-62
2022/09/27 01:45:12;;;;;;;916.38;854.03;;;;;;;-146.32;100.00;63746.28;693831;28;137197;-65
2022/09/27 01:45:51;;;;;;;918.75;856.42;;;;;;;-146.32;100.00;63746.28;694113;28;137554;-64
2022/09/27 01:46:33;;;;;;;897.75;836.15;;;;;;;-146.32;100.00;63746.28;691592;28;137723;-65
2022/09/27 01:47:17;;;;;;;923.15;860.13;;;;;;;-146.32;100.00;63746.28;687143;28;157875;-64
2022/09/27 01:47:50;;;;;;;920.00;857.45;;;;;;;-146.32;100.00;63746.28;693150;28;135990;-64
2022/09/27 01:48:32;;;;;;;913.08;850.83;;;;;;;-146.32;100.00;63746.28;693859;28;137476;-64
2022/09/27 01:49:00;;;;;;;906.72;844.75;;;;;;;-146.32;100.00;63746.28;694252;28;138835;-65
2022/09/27 01:49:27;;;;;;;914.85;852.53;;;;;;;-146.32;100.00;63746.28;696153;28;67489;-64
2022/09/27 01:49:53;;;;;;;920.70;858.10;;;;;;;-146.32;100.00;63746.28;691367;28;138052;-64
2022/09/27 01:50:17;;;;;;;908.17;846.08;;;;;;;-146.32;100.00;63746.28;690832;28;138282;-64
2022/09/27 01:50:42;;;;;;;916.22;853.83;;;;;;;-146.32;100.00;63746.28;692560;28;92266;-65
2022/09/27 01:51:06;;;;;;;909.97;847.80;;;;;;;-146.32;100.00;63746.28;692248;28;115282;-65
2022/09/27 01:51:30;;;;;;;901.72;839.83;;;;;;;-146.32;100.00;63746.28;692874;28;92270;-65
2022/09/27 01:51:54;;;;;;;916.95;854.50;;;;;;;-146.32;100.00;63746.28;693044;28;67467;-64
2022/09/27 01:52:18;;;;;;;917.42;854.88;;;;;;;-146.32;100.00;63746.28;689431;28;113533;-65